Time;durP1;ratioP1;P1;durP2;ratioP2;P2;SDS_P1;SDS_P2;PMS_P1;PMS_P2;Temp;Humidity;BMP_temperature;BMP_pressure;BME280_temperature;BME280_humidity;BME280_pressure;Samples;Min_cycle;Max_cycle;Signal;HPM_P1;HPM_P2
2024/03/01 00:00:17;;;;;;;;;42.00;29.67;;;;;10.02;97.09;100531.05;114864;240;162308;-51
2024/03/01 00:03:11;;;;;;;;;43.50;30.75;;;;;10.02;97.27;100526.54;114741;243;41295;-51
2024/03/01 00:05:45;;;;;;;;;48.00;36.00;;;;;10.02;97.40;100516.44;114741;240;162639;-51
2024/03/01 00:08:20;;;;;;;;;42.33;30.00;;;;;9.99;97.35;100516.31;114595;243;40104;-51
2024/03/01 00:10:54;;;;;;;;;44.50;32.50;;;;;10.01;97.34;100517.97;114862;244;39291;-53
2024/03/01 00:13:28;;;;;;;;;44.75;31.00;;;;;10.01;97.27;100518.35;114217;241;162756;-52
2024/03/01 00:16:03;;;;;;;;;46.00;34.00;;;;;9.97;97.27;100522.56;114264;244;39804;-53
2024/03/01 00:18:36;;;;;;;;;56.00;38.00;;;;;9.94;97.37;100513.61;114250;240;162920;-54
2024/03/01 00:21:15;;;;;;;;;52.75;38.75;;;;;9.96;97.30;100510.91;114525;242;39915;-51
2024/03/01 00:23:49;;;;;;;;;45.25;31.25;;;;;9.96;97.19;100506.89;114117;241;162155;-51
2024/03/01 00:26:23;;;;;;;;;47.00;35.00;;;;;9.96;97.28;100508.05;114417;243;40720;-51
2024/03/01 00:28:57;;;;;;;;;45.50;33.75;;;;;9.97;97.25;100506.85;115056;243;40165;-51
2024/03/01 00:31:31;;;;;;;;;43.00;32.00;;;;;9.93;97.48;100503.02;114237;241;162312;-51
2024/03/01 00:34:05;;;;;;;;;48.67;35.67;;;;;9.87;97.54;100503.25;114284;244;39134;-51
2024/03/01 00:36:38;;;;;;;;;52.75;37.50;;;;;9.90;97.42;100497.19;114144;241;162140;-53
2024/03/01 00:39:12;;;;;;;;;54.00;37.33;;;;;9.91;97.43;100494.09;114305;244;39386;-54
2024/03/01 00:41:46;;;;;;;;;36.50;26.00;;;;;9.90;97.44;100481.73;114210;241;162160;-53
2024/03/01 00:44:21;;;;;;;;;52.25;38.25;;;;;9.89;97.52;100482.54;114253;244;39770;-53
2024/03/01 00:46:54;;;;;;;;;48.50;36.00;;;;;9.86;97.70;100478.40;114263;244;40940;-51
2024/03/01 00:49:29;;;;;;;;;41.00;29.00;;;;;9.84;97.53;100471.64;114346;240;162163;-51
2024/03/01 00:52:03;;;;;;;;;52.00;38.00;;;;;9.83;97.67;100466.52;114561;242;39587;-50
2024/03/01 00:54:37;;;;;;;;;56.00;40.50;;;;;9.85;97.34;100464.02;114311;241;162075;-52
2024/03/01 00:57:11;;;;;;;;;51.00;36.00;;;;;9.86;97.47;100461.34;114763;243;39808;-53
2024/03/01 00:59:45;;;;;;;;;54.00;37.33;;;;;9.85;97.66;100458.27;114973;241;163419;-50
2024/03/01 01:02:20;;;;;;;;;53.67;37.67;;;;;9.82;97.63;100453.55;114224;244;39067;-51
2024/03/01 01:04:54;;;;;;;;;54.75;37.50;;;;;9.79;97.78;100455.55;114257;244;40761;-53
2024/03/01 01:07:28;;;;;;;;;50.50;35.00;;;;;9.76;97.78;100446.40;114100;241;163180;-54
2024/03/01 01:10:03;;;;;;;;;42.33;31.00;;;;;9.78;97.92;100446.02;114321;244;40888;-53
2024/03/01 01:12:38;;;;;;;;;53.33;38.00;;;;;9.77;97.79;100441.77;114272;243;162474;-53
2024/03/01 01:15:13;;;;;;;;;49.00;35.00;;;;;9.80;97.83;100437.05;114546;242;39880;-54
2024/03/01 01:17:48;;;;;;;;;47.25;32.00;;;;;9.78;97.66;100438.09;114388;241;163130;-54
2024/03/01 01:20:21;;;;;;;;;49.67;34.00;;;;;9.80;97.75;100435.60;114490;243;39407;-53
2024/03/01 01:22:55;;;;;;;;;45.00;31.67;;;;;9.80;97.66;100436.89;115084;243;40060;-53
2024/03/01 01:25:29;;;;;;;;;53.25;39.00;;;;;9.78;97.89;100435.39;114248;241;162350;-51
2024/03/01 01:28:03;;;;;;;;;51.67;37.33;;;;;9.75;97.86;100425.63;115111;244;40044;-52
2024/03/01 01:30:38;;;;;;;;;49.50;36.25;;;;;9.77;97.72;100422.55;114753;243;162279;-53
2024/03/01 01:33:12;;;;;;;;;55.00;38.67;;;;;9.77;97.84;100419.11;114570;242;39060;-53
2024/03/01 01:35:46;;;;;;;;;46.50;33.00;;;;;9.74;97.99;100417.35;114438;241;162201;-54
2024/03/01 01:38:20;;;;;;;;;46.25;32.75;;;;;9.76;97.75;100410.71;114400;243;40006;-54
2024/03/01 01:40:54;;;;;;;;;47.33;32.33;;;;;9.75;97.76;100410.40;114996;243;39185;-51
2024/03/01 01:43:27;;;;;;;;;49.25;37.00;;;;;9.74;97.76;100405.61;114516;240;162414;-52
2024/03/01 01:46:01;;;;;;;;;56.67;40.00;;;;;9.71;97.74;100404.23;114558;242;40149;-54
2024/03/01 01:48:35;;;;;;;;;52.50;38.50;;;;;9.69;97.91;100401.08;114268;241;162357;-54
2024/03/01 01:51:10;;;;;;;;;60.00;42.00;;;;;9.73;97.92;100395.34;114637;243;39474;-52
2024/03/01 01:53:44;;;;;;;;;57.50;40.50;;;;;9.65;98.25;100393.93;114784;240;162174;-52
2024/03/01 01:56:19;;;;;;;;;47.50;34.75;;;;;9.62;97.98;100389.25;114540;242;39538;-51
2024/03/01 01:58:54;;;;;;;;;59.67;41.00;;;;;9.66;98.01;100393.25;114540;242;39802;-51
2024/03/01 02:01:28;;;;;;;;;48.00;33.25;;;;;9.66;98.09;100395.04;114153;241;162417;-51
2024/03/01 02:04:03;;;;;;;;;47.00;34.00;;;;;9.64;98.16;100388.69;114893;243;40145;-52
2024/03/01 02:06:36;;;;;;;;;45.67;32.67;;;;;9.69;97.93;100383.60;114611;240;162141;-53
2024/03/01 02:09:13;;;;;;;;;51.00;37.25;;;;;9.71;98.10;100384.48;114543;242;40918;-53
2024/03/01 02:11:47;;;;;;;;;48.75;35.00;;;;;9.73;97.96;100381.48;114405;241;162484;-51
2024/03/01 02:14:21;;;;;;;;;48.00;35.00;;;;;9.70;97.97;100376.95;114474;243;39366;-51
2024/03/01 02:16:55;;;;;;;;;51.75;37.00;;;;;9.70;97.93;100377.29;114884;243;40000;-54
2024/03/01 02:19:30;;;;;;;;;44.75;31.75;;;;;9.66;98.03;100372.62;114523;240;162116;-54
2024/03/01 02:22:10;;;;;;;;;59.00;41.00;;;;;9.64;98.01;100374.83;114597;242;39255;-51
2024/03/01 02:24:44;;;;;;;;;50.25;33.50;;;;;9.60;98.06;100372.58;114279;241;162079;-53
2024/03/01 02:27:18;;;;;;;;;44.25;32.50;;;;;9.59;97.93;100376.39;114708;243;40479;-54
2024/03/01 02:29:52;;;;;;;;;50.00;34.67;;;;;9.55;98.21;100375.73;114742;240;162300;-53
2024/03/01 02:32:26;;;;;;;;;56.00;40.33;;;;;9.60;98.10;100370.70;114542;242;40300;-53
2024/03/01 02:35:00;;;;;;;;;58.75;40.00;;;;;9.58;98.07;100371.95;114235;242;40121;-51
2024/03/01 02:37:34;;;;;;;;;40.33;30.00;;;;;9.50;98.25;100371.00;114065;242;162024;-51
2024/03/01 02:40:10;;;;;;;;;52.50;37.25;;;;;9.53;98.16;100373.26;115069;243;39947;-51
2024/03/01 02:42:44;;;;;;;;;44.50;32.50;;;;;9.56;97.97;100361.80;114567;241;162329;-51
2024/03/01 02:45:18;;;;;;;;;56.00;40.00;;;;;9.57;97.90;100359.16;114602;243;41232;-53
2024/03/01 02:47:52;;;;;;;;;45.67;32.00;;;;;9.56;97.88;100357.98;114614;240;162389;-53
2024/03/01 02:50:26;;;;;;;;;52.33;38.00;;;;;9.58;97.74;100356.01;114539;242;39514;-50
2024/03/01 02:53:00;;;;;;;;;47.67;33.67;;;;;9.57;97.84;100356.86;114254;242;39980;-50
2024/03/01 02:55:33;;;;;;;;;60.00;42.00;;;;;9.50;98.06;100350.77;114162;241;162215;-52
2024/03/01 02:58:07;;;;;;;;;65.00;43.00;;;;;9.51;97.95;100347.79;114361;244;40035;-52
2024/03/01 03:00:41;;;;;;;;;50.00;35.00;;;;;9.50;98.05;100351.13;114166;241;162134;-51
2024/03/01 03:03:15;;;;;;;;;44.50;33.25;;;;;9.46;98.08;100353.05;114577;243;40061;-51
2024/03/01 03:05:49;;;;;;;;;48.75;35.00;;;;;9.48;97.97;100343.71;114512;241;163574;-53
2024/03/01 03:08:23;;;;;;;;;53.50;38.50;;;;;9.46;97.98;100337.25;114402;243;41328;-53
2024/03/01 03:10:57;;;;;;;;;58.33;39.00;;;;;9.46;97.94;100334.22;114746;243;39849;-52
2024/03/01 03:13:31;;;;;;;;;49.75;33.00;;;;;9.43;98.04;100333.14;114148;241;161993;-53
2024/03/01 03:16:05;;;;;;;;;58.00;39.00;;;;;9.41;97.75;100330.74;114644;243;38880;-50
2024/03/01 03:18:38;;;;;;;;;48.50;35.00;;;;;9.41;97.81;100333.91;114311;241;162171;-50
2024/03/01 03:21:12;;;;;;;;;55.00;38.50;;;;;9.41;97.63;100332.45;114540;243;40345;-52
2024/03/01 03:23:46;;;;;;;;;47.00;33.00;;;;;9.43;97.71;100333.55;114108;241;162189;-53
2024/03/01 03:26:20;;;;;;;;;61.00;42.00;;;;;9.44;97.73;100328.69;114346;243;39231;-51
2024/03/01 03:28:54;;;;;;;;;48.33;33.00;;;;;9.42;97.82;100317.85;114676;243;39736;-51
2024/03/01 03:31:28;;;;;;;;;55.75;36.50;;;;;9.42;97.89;100310.10;114183;241;162242;-52
2024/03/01 03:34:04;;;;;;;;;53.25;38.25;;;;;9.39;97.93;100315.70;114701;243;39595;-52
2024/03/01 03:36:38;;;;;;;;;53.50;36.50;;;;;9.36;97.95;100318.05;114380;241;162907;-53
2024/03/01 03:39:14;;;;;;;;;62.00;40.75;;;;;9.37;98.25;100313.77;114537;243;39927;-53
2024/03/01 03:41:50;;;;;;;;;43.50;30.00;;;;;9.38;98.24;100316.65;114612;241;161951;-53
2024/03/01 03:44:28;;;;;;;;;54.67;39.67;;;;;9.39;98.34;100317.40;114468;243;39401;-53
2024/03/01 03:47:01;;;;;;;;;57.25;39.00;;;;;9.42;98.17;100314.90;114990;243;39343;-53
2024/03/01 03:49:36;;;;;;;;;50.00;34.67;;;;;9.39;98.18;100305.94;114215;241;162278;-51
2024/03/01 03:52:11;;;;;;;;;52.25;36.00;;;;;9.40;98.45;100306.25;115051;243;39161;-50
2024/03/01 03:54:46;;;;;;;;;47.00;34.00;;;;;9.40;98.47;100299.36;114553;241;162378;-51
2024/03/01 03:57:20;;;;;;;;;53.00;35.00;;;;;9.37;98.41;100302.02;114739;243;39681;-51
2024/03/01 03:59:54;;;;;;;;;51.67;37.33;;;;;9.34;98.71;100300.13;114088;241;162099;-52
2024/03/01 04:02:29;;;;;;;;;50.50;36.00;;;;;9.33;98.76;100302.36;114523;243;40000;-52
2024/03/01 04:05:03;;;;;;;;;52.75;35.00;;;;;9.36;98.67;100303.48;115032;243;41237;-50
2024/03/01 04:07:38;;;;;;;;;48.25;34.00;;;;;9.33;99.02;100301.04;114204;241;162373;-50
2024/03/01 04:10:13;;;;;;;;;56.00;39.33;;;;;9.37;98.80;100297.00;115115;243;39625;-52
2024/03/01 04:12:48;;;;;;;;;57.00;40.67;;;;;9.33;98.95;100287.77;113886;242;716367;-52
2024/03/01 04:15:23;;;;;;;;;59.00;40.00;;;;;9.34;98.83;100283.35;114374;244;40066;-52
2024/03/01 04:17:57;;;;;;;;;51.33;34.67;;;;;9.31;98.94;100287.91;114074;241;162448;-53
2024/03/01 04:20:31;;;;;;;;;50.00;36.00;;;;;9.34;98.92;100286.79;114255;243;40197;-50
2024/03/01 04:23:05;;;;;;;;;48.33;34.00;;;;;9.36;98.81;100283.16;114215;244;40277;-50
2024/03/01 04:25:41;;;;;;;;;61.33;41.33;;;;;9.31;98.93;100282.98;114088;241;162408;-53
2024/03/01 04:28:15;;;;;;;;;50.67;37.00;;;;;9.32;99.05;100273.95;114210;244;39748;-53
2024/03/01 04:30:50;;;;;;;;;42.50;30.75;;;;;9.35;98.97;100269.80;114096;241;162216;-52
2024/03/01 04:33:24;;;;;;;;;46.33;32.67;;;;;9.33;99.12;100275.07;114238;243;40162;-52
2024/03/01 04:35:57;;;;;;;;;53.50;38.50;;;;;9.30;99.05;100281.30;114114;241;162539;-51
2024/03/01 04:38:31;;;;;;;;;57.00;39.50;;;;;9.27;99.23;100288.73;114231;243;41288;-51
2024/03/01 04:41:05;;;;;;;;;51.00;36.00;;;;;9.23;99.10;100287.08;114248;244;39467;-53
2024/03/01 04:43:41;;;;;;;;;57.00;41.00;;;;;9.19;99.37;100284.98;114114;241;162395;-53
2024/03/01 04:46:15;;;;;;;;;48.50;34.25;;;;;9.13;99.48;100288.60;114257;244;40211;-50
2024/03/01 04:48:49;;;;;;;;;44.00;31.50;;;;;9.15;99.42;100283.34;114111;241;161994;-51
2024/03/01 04:51:25;;;;;;;;;51.00;35.00;;;;;9.15;99.39;100279.10;114311;243;41302;-50
2024/03/01 04:53:59;;;;;;;;;46.75;33.00;;;;;9.13;99.37;100280.69;114186;241;162408;-50
2024/03/01 04:56:32;;;;;;;;;60.50;40.75;;;;;9.12;99.35;100290.88;114282;243;40311;-52
2024/03/01 04:59:08;;;;;;;;;53.00;38.00;;;;;9.17;99.17;100289.76;114390;244;40253;-52
2024/03/01 05:01:42;;;;;;;;;46.00;31.50;;;;;9.19;99.01;100289.37;114148;241;162048;-50
2024/03/01 05:04:15;;;;;;;;;48.75;32.75;;;;;9.21;99.38;100285.31;114354;244;40079;-50
2024/03/01 05:06:49;;;;;;;;;47.50;33.00;;;;;9.23;99.28;100291.20;114152;241;164018;-50
2024/03/01 05:09:24;;;;;;;;;41.00;29.50;;;;;9.24;99.15;100288.25;114347;243;40442;-50
2024/03/01 05:11:58;;;;;;;;;44.50;29.75;;;;;9.24;99.14;100286.77;114228;242;162210;-50
2024/03/01 05:14:32;;;;;;;;;53.67;36.67;;;;;9.17;99.16;100288.17;114263;244;39765;-51
2024/03/01 05:17:06;;;;;;;;;45.25;32.25;;;;;9.15;99.05;100286.95;114339;244;40305;-50
2024/03/01 05:19:41;;;;;;;;;53.75;36.50;;;;;9.09;99.14;100290.98;114136;242;162316;-50
2024/03/01 05:22:14;;;;;;;;;37.33;28.33;;;;;9.06;99.06;100292.92;114386;244;41127;-50
2024/03/01 05:24:49;;;;;;;;;46.33;31.00;;;;;9.04;99.09;100298.16;114189;242;162059;-50
2024/03/01 05:27:23;;;;;;;;;46.50;30.50;;;;;9.06;98.96;100293.96;114328;244;40005;-50
2024/03/01 05:29:56;;;;;;;;;35.00;25.33;;;;;9.02;99.18;100294.23;114257;242;162281;-49
2024/03/01 05:32:30;;;;;;;;;46.50;34.00;;;;;9.01;98.99;100298.65;114288;244;40116;-50
2024/03/01 05:35:07;;;;;;;;;45.00;32.67;;;;;8.96;98.82;100293.04;114385;244;39241;-52
2024/03/01 05:37:42;;;;;;;;;51.33;36.00;;;;;8.94;99.08;100296.64;114110;244;162094;-53
2024/03/01 05:40:21;;;;;;;;;43.25;31.50;;;;;8.96;98.89;100295.78;114356;244;40175;-50
2024/03/01 05:42:55;;;;;;;;;43.50;31.00;;;;;8.95;98.72;100294.36;114140;242;162137;-50
2024/03/01 05:45:30;;;;;;;;;39.00;28.00;;;;;8.95;98.68;100299.09;114300;244;39129;-52
2024/03/01 05:48:04;;;;;;;;;41.75;30.00;;;;;8.89;99.02;100300.69;114176;244;162178;-52
2024/03/01 05:50:38;;;;;;;;;45.00;31.33;;;;;8.87;99.01;100295.88;114262;244;39214;-50
2024/03/01 05:53:15;;;;;;;;;41.33;30.00;;;;;8.90;98.85;100294.27;114365;244;40763;-50
2024/03/01 05:55:49;;;;;;;;;49.50;36.00;;;;;8.90;98.76;100291.91;114115;244;163949;-50
2024/03/01 05:58:24;;;;;;;;;57.00;38.00;;;;;8.90;98.73;100294.95;114372;244;40936;-50
2024/03/01 06:00:59;;;;;;;;;49.50;36.25;;;;;8.90;98.86;100293.29;114153;242;162345;-52
2024/03/01 06:03:33;;;;;;;;;49.67;36.00;;;;;8.87;98.87;100295.77;114315;244;40618;-52
2024/03/01 06:06:09;;;;;;;;;43.00;29.75;;;;;8.87;99.08;100296.71;114200;244;162161;-53
2024/03/01 06:08:43;;;;;;;;;32.50;23.25;;;;;8.85;98.95;100298.98;114263;244;39968;-54
2024/03/01 06:11:17;;;;;;;;;42.50;30.00;;;;;8.82;99.09;100292.52;114388;244;39790;-51
2024/03/01 06:13:51;;;;;;;;;53.00;37.50;;;;;8.83;98.97;100290.09;114117;242;164033;-51
2024/03/01 06:16:25;;;;;;;;;40.00;28.50;;;;;8.82;99.02;100287.67;114370;244;40051;-51
2024/03/01 06:19:00;;;;;;;;;46.00;34.00;;;;;8.85;99.03;100283.67;114173;242;162267;-51
2024/03/01 06:21:34;;;;;;;;;42.75;30.25;;;;;8.84;98.95;100286.55;114361;244;39473;-51
2024/03/01 06:24:08;;;;;;;;;40.00;29.25;;;;;8.86;98.94;100289.86;114204;242;162500;-51
2024/03/01 06:26:42;;;;;;;;;49.00;33.00;;;;;8.91;98.88;100297.37;114257;244;39613;-53
2024/03/01 06:29:16;;;;;;;;;39.67;29.00;;;;;8.92;98.89;100298.91;114362;244;40758;-53
2024/03/01 06:31:50;;;;;;;;;40.75;30.50;;;;;8.99;98.79;100298.41;114101;242;161788;-51
2024/03/01 06:34:24;;;;;;;;;41.50;29.75;;;;;8.98;98.58;100298.15;114349;244;39790;-51
2024/03/01 06:36:58;;;;;;;;;47.00;31.50;;;;;9.02;98.55;100293.94;114165;242;162189;-54
2024/03/01 06:39:33;;;;;;;;;43.00;30.33;;;;;9.09;98.54;100289.99;114329;244;39187;-52
2024/03/01 06:42:09;;;;;;;;;42.00;30.00;;;;;9.15;98.22;100289.23;114225;242;162250;-53
2024/03/01 06:44:45;;;;;;;;;41.00;29.50;;;;;9.20;98.30;100289.90;114278;244;39599;-53
2024/03/01 06:47:20;;;;;;;;;48.75;36.25;;;;;9.28;97.94;100284.45;114377;244;39432;-53
2024/03/01 06:49:54;;;;;;;;;37.50;28.00;;;;;9.31;97.73;100287.73;114127;242;161998;-54
2024/03/01 06:52:27;;;;;;;;;56.50;38.00;;;;;9.34;97.49;100280.16;114362;244;40841;-54
2024/03/01 06:55:02;;;;;;;;;56.25;39.00;;;;;9.43;97.46;100278.64;114150;242;161692;-51
2024/03/01 06:57:37;;;;;;;;;50.50;36.00;;;;;9.45;97.41;100279.46;114366;244;39752;-51
2024/03/01 07:00:14;;;;;;;;;41.00;31.00;;;;;9.39;96.91;100281.02;114244;244;161570;-53
2024/03/01 07:02:48;;;;;;;;;31.00;23.00;;;;;9.33;96.32;100288.51;114273;244;41408;-52
2024/03/01 07:05:22;;;;;;;;;44.00;31.00;;;;;9.27;96.59;100288.71;114363;244;39754;-52
2024/03/01 07:07:57;;;;;;;;;33.75;25.25;;;;;9.37;96.44;100283.05;114090;242;163018;-52
2024/03/01 07:10:31;;;;;;;;;47.50;34.00;;;;;9.43;96.22;100283.45;114380;244;40545;-53
2024/03/01 07:13:06;;;;;;;;;42.50;30.50;;;;;9.52;95.83;100280.80;114093;242;164136;-53
2024/03/01 07:15:39;;;;;;;;;42.00;29.25;;;;;9.77;95.36;100286.92;114236;244;39795;-52
2024/03/01 07:18:14;;;;;;;;;44.00;32.00;;;;;10.03;95.62;100285.35;114062;242;162322;-53
2024/03/01 07:20:48;;;;;;;;;44.00;33.00;;;;;10.18;94.60;100284.77;114306;244;40741;-51
2024/03/01 07:23:22;;;;;;;;;45.75;33.50;;;;;10.15;93.51;100279.40;114359;244;40845;-51
2024/03/01 07:25:56;;;;;;;;;37.00;27.67;;;;;10.31;93.28;100279.19;114112;242;161647;-51
2024/03/01 07:28:30;;;;;;;;;53.00;37.00;;;;;10.61;93.15;100274.33;114210;245;39195;-53
2024/03/01 07:31:06;;;;;;;;;46.33;34.33;;;;;11.05;92.91;100267.13;114091;242;161554;-54
2024/03/01 07:33:41;;;;;;;;;47.00;34.00;;;;;11.65;92.16;100263.60;114255;244;40502;-51
2024/03/01 07:36:17;;;;;;;;;42.50;32.50;;;;;12.14;89.51;100262.73;114126;242;162022;-51
2024/03/01 07:38:54;;;;;;;;;48.25;35.25;;;;;12.83;88.81;100266.77;114223;244;39115;-51
2024/03/01 07:41:28;;;;;;;;;46.00;34.67;;;;;13.30;86.85;100261.69;114222;244;39745;-50
2024/03/01 07:44:03;;;;;;;;;47.25;35.75;;;;;13.98;86.23;100256.25;114387;244;40667;-50
2024/03/01 07:46:40;;;;;;;;;43.00;33.00;;;;;14.35;84.76;100257.56;115161;244;39959;-53
2024/03/01 07:49:15;;;;;;;;;47.00;35.00;;;;;14.62;81.92;100269.09;114428;242;161817;-54
2024/03/01 07:51:53;;;;;;;;;39.00;30.00;;;;;14.88;80.44;100266.33;114260;244;40866;-51
2024/03/01 07:54:29;;;;;;;;;50.00;35.33;;;;;14.97;79.75;100258.55;114134;243;162400;-51
2024/03/01 07:57:03;;;;;;;;;50.50;38.00;;;;;14.75;77.87;100259.67;114747;243;40189;-51
2024/03/01 07:59:38;;;;;;;;;43.25;32.75;;;;;14.73;76.88;100252.15;115001;242;161451;-51
2024/03/01 08:02:13;;;;;;;;;48.50;35.25;;;;;14.63;76.47;100256.90;114227;243;39547;-53
2024/03/01 08:04:47;;;;;;;;;41.67;31.67;;;;;15.07;76.73;100250.60;114230;244;40516;-51
2024/03/01 08:07:21;;;;;;;;;46.00;34.00;;;;;15.86;76.96;100243.64;114064;242;161762;-51
2024/03/01 08:09:55;;;;;;;;;49.00;37.00;;;;;16.72;74.39;100245.85;114239;244;39889;-53
2024/03/01 08:12:29;;;;;;;;;49.00;36.00;;;;;17.07;73.93;100249.31;114092;242;161698;-54
2024/03/01 08:15:17;;;;;;;;;41.00;32.00;;;;;16.93;70.68;100255.65;114255;244;39800;-52
2024/03/01 08:17:51;;;;;;;;;47.00;36.25;;;;;16.51;70.20;100260.42;114112;242;161462;-52
2024/03/01 08:20:58;;;;;;;;;46.00;36.00;;;;;16.48;70.04;100264.64;114239;244;39979;-53
2024/03/01 08:23:37;;;;;;;;;46.33;35.33;;;;;16.08;70.29;100268.13;114235;245;39939;-53
2024/03/01 08:26:23;;;;;;;;;41.00;31.67;;;;;15.71;69.47;100260.65;114367;244;38904;-53
2024/03/01 08:29:00;;;;;;;;;49.25;36.00;;;;;15.62;69.65;100260.33;114365;244;39589;-53
2024/03/01 08:31:35;;;;;;;;;47.33;35.67;;;;;15.86;70.62;100253.41;114094;242;161915;-51
2024/03/01 08:34:17;;;;;;;;;43.67;32.33;;;;;15.71;68.20;100247.78;114237;244;41002;-52
2024/03/01 08:36:52;;;;;;;;;48.00;36.25;;;;;15.28;69.09;100246.27;114203;241;161523;-51
2024/03/01 08:39:28;;;;;;;;;40.50;31.50;;;;;15.03;70.16;100247.48;114344;243;39994;-53
2024/03/01 08:42:05;;;;;;;;;37.75;29.00;;;;;14.72;69.32;100246.43;114206;241;162640;-52
2024/03/01 08:44:59;;;;;;;;;46.00;35.00;;;;;14.44;70.08;100248.20;114280;243;39231;-52
2024/03/01 08:47:37;;;;;;;;;50.25;36.00;;;;;14.34;69.91;100247.59;114344;244;39958;-52
2024/03/01 08:50:42;;;;;;;;;42.50;32.75;;;;;14.32;70.17;100240.40;114316;243;40284;-54
2024/03/01 08:54:00;;;;;;;;;48.00;36.00;;;;;14.55;70.84;100239.23;115120;244;40995;-54
2024/03/01 08:56:41;;;;;;;;;45.25;31.00;;;;;14.46;68.98;100230.26;114325;244;41010;-51
2024/03/01 08:59:43;;;;;;;;;48.00;37.00;;;;;14.24;68.93;100218.33;114324;244;39597;-51
2024/03/01 09:02:48;;;;;;;;;41.25;31.50;;;;;14.11;69.01;100209.67;114382;244;40176;-52
2024/03/01 09:05:23;;;;;;;;;39.75;31.00;;;;;14.00;69.71;100209.02;114394;244;39465;-51
2024/03/01 09:07:57;;;;;;;;;40.50;28.00;;;;;13.88;70.10;100210.21;114122;244;161362;-51
2024/03/01 09:10:34;;;;;;;;;40.00;31.25;;;;;13.56;70.12;100207.31;114340;244;39004;-53
2024/03/01 09:13:10;;;;;;;;;41.00;31.25;;;;;13.38;70.26;100204.02;114119;241;161672;-54
2024/03/01 09:15:45;;;;;;;;;42.75;32.00;;;;;13.38;70.64;100204.94;114892;243;39757;-51
2024/03/01 09:18:49;;;;;;;;;46.75;34.50;;;;;13.27;70.27;100205.51;114766;242;161980;-51
2024/03/01 09:21:46;;;;;;;;;40.33;30.67;;;;;13.02;70.30;100205.63;114278;244;39150;-54
2024/03/01 09:24:21;;;;;;;;;45.50;33.75;;;;;13.08;70.78;100208.60;114184;241;162355;-54
2024/03/01 09:26:57;;;;;;;;;37.50;29.00;;;;;13.18;71.46;100202.97;114583;243;41111;-52
2024/03/01 09:29:38;;;;;;;;;44.00;34.00;;;;;13.13;70.44;100206.57;115228;243;40214;-52
2024/03/01 09:32:12;;;;;;;;;39.25;30.00;;;;;12.87;70.04;100203.63;114414;243;161892;-51
2024/03/01 09:34:47;;;;;;;;;40.75;30.75;;;;;12.73;70.09;100201.49;115225;244;39879;-53
2024/03/01 09:37:23;;;;;;;;;32.00;24.00;;;;;12.69;70.18;100201.38;114632;240;161665;-54
2024/03/01 09:39:59;;;;;;;;;37.50;28.25;;;;;12.70;70.57;100201.95;115087;243;39195;-53
2024/03/01 09:42:51;;;;;;;;;42.33;32.33;;;;;12.71;70.25;100198.08;114759;241;161399;-53
2024/03/01 09:45:45;;;;;;;;;32.00;23.75;;;;;12.64;70.16;100204.04;114787;243;40143;-52
2024/03/01 09:48:43;;;;;;;;;42.00;29.00;;;;;12.53;70.39;100197.54;114862;242;162148;-53
2024/03/01 09:51:48;;;;;;;;;37.00;27.25;;;;;12.56;70.57;100192.98;114284;243;39083;-51
2024/03/01 09:54:36;;;;;;;;;37.00;29.50;;;;;12.74;70.06;100194.91;114167;241;162185;-51
2024/03/01 09:57:22;;;;;;;;;39.00;29.25;;;;;12.83;70.49;100194.04;114238;244;40110;-50
2024/03/01 10:00:06;;;;;;;;;39.00;29.33;;;;;12.88;70.43;100191.71;114191;241;161829;-51
2024/03/01 10:02:53;;;;;;;;;38.75;29.25;;;;;13.02;69.95;100196.83;114539;243;39869;-51
2024/03/01 10:05:49;;;;;;;;;37.00;30.00;;;;;13.09;69.72;100199.48;115031;244;40287;-53
2024/03/01 10:08:35;;;;;;;;;35.50;28.25;;;;;13.12;70.27;100201.61;114344;244;39496;-53
2024/03/01 10:11:27;;;;;;;;;36.00;28.50;;;;;13.14;70.29;100202.39;114338;244;39497;-52
2024/03/01 10:14:13;;;;;;;;;37.00;28.67;;;;;13.06;70.07;100195.58;114082;242;161266;-52
2024/03/01 10:17:08;;;;;;;;;41.00;32.00;;;;;12.99;69.29;100198.99;114354;244;40453;-50
2024/03/01 10:20:17;;;;;;;;;32.75;25.00;;;;;12.75;69.01;100198.87;114092;242;161605;-52
2024/03/01 10:23:11;;;;;;;;;42.67;32.33;;;;;12.67;69.26;100197.58;114252;244;40412;-53
2024/03/01 10:25:56;;;;;;;;;39.75;31.00;;;;;12.68;69.34;100197.66;114080;242;161729;-52
2024/03/01 10:28:54;;;;;;;;;42.00;32.00;;;;;12.72;69.63;100198.59;114319;244;41319;-53
2024/03/01 10:31:46;;;;;;;;;41.50;30.00;;;;;12.76;70.13;100190.73;114127;242;161629;-52
2024/03/01 10:34:32;;;;;;;;;38.67;30.33;;;;;12.89;69.98;100181.02;114326;244;39489;-57
2024/03/01 10:37:14;;;;;;;;;45.75;32.50;;;;;13.00;69.49;100175.14;114127;242;161807;-50
2024/03/01 10:39:54;;;;;;;;;40.00;31.00;;;;;12.95;69.38;100177.80;114349;244;41301;-50
2024/03/01 10:42:30;;;;;;;;;38.75;29.75;;;;;13.05;69.89;100178.85;114172;242;162299;-50
2024/03/01 10:45:18;;;;;;;;;43.33;33.33;;;;;13.18;69.41;100177.44;114293;244;40231;-52
2024/03/01 10:47:55;;;;;;;;;43.00;31.25;;;;;13.16;69.15;100169.80;114234;244;39896;-52
2024/03/01 10:50:34;;;;;;;;;42.25;32.00;;;;;13.11;69.26;100164.42;114230;244;39344;-51
2024/03/01 10:53:18;;;;;;;;;39.50;28.00;;;;;13.10;69.34;100164.14;114282;244;40503;-51
2024/03/01 10:55:59;;;;;;;;;39.75;29.50;;;;;13.08;69.47;100156.15;114128;242;162285;-51
2024/03/01 10:58:46;;;;;;;;;39.25;29.75;;;;;13.14;68.17;100156.54;114229;245;41266;-51
2024/03/01 11:01:27;;;;;;;;;36.00;27.00;;;;;13.09;69.09;100160.02;114113;242;161235;-53
2024/03/01 11:04:11;;;;;;;;;40.75;30.75;;;;;13.19;69.33;100153.73;114318;244;39901;-54
2024/03/01 11:07:01;;;;;;;;;39.75;29.75;;;;;13.30;69.25;100150.77;114197;242;161781;-51
2024/03/01 11:09:41;;;;;;;;;35.00;28.00;;;;;13.38;69.32;100146.16;114245;244;39769;-51
2024/03/01 11:12:28;;;;;;;;;38.00;29.00;;;;;13.37;68.60;100142.00;114098;242;161807;-53
2024/03/01 11:15:13;;;;;;;;;40.00;30.00;;;;;13.44;68.65;100139.59;114233;244;40407;-52
2024/03/01 11:17:51;;;;;;;;;35.00;25.67;;;;;13.32;68.48;100142.00;114342;244;38985;-51
2024/03/01 11:20:34;;;;;;;;;31.25;24.00;;;;;13.28;68.08;100152.08;114008;244;39212;-54
2024/03/01 11:23:21;;;;;;;;;36.00;26.00;;;;;13.20;68.63;100154.89;114336;244;40926;-53
2024/03/01 11:26:05;;;;;;;;;34.67;27.67;;;;;13.24;68.58;100150.13;114084;242;161620;-52
2024/03/01 11:28:44;;;;;;;;;38.00;28.00;;;;;13.21;68.50;100152.90;114370;244;39427;-52
2024/03/01 11:31:24;;;;;;;;;38.50;30.00;;;;;13.12;68.27;100150.94;114179;242;162558;-51
2024/03/01 11:34:11;;;;;;;;;40.00;29.75;;;;;13.18;68.82;100151.23;114356;244;39458;-51
2024/03/01 11:37:02;;;;;;;;;37.00;27.00;;;;;13.22;68.50;100140.20;114214;241;162701;-52
2024/03/01 11:39:52;;;;;;;;;37.00;28.33;;;;;13.22;68.37;100131.09;114556;243;40445;-52
2024/03/01 11:42:41;;;;;;;;;38.00;29.75;;;;;13.27;69.04;100133.17;114544;241;162020;-50
2024/03/01 11:45:28;;;;;;;;;52.33;38.00;;;;;13.25;68.47;100147.48;114297;243;40187;-49
2024/03/01 11:48:22;;;;;;;;;41.00;31.33;;;;;13.12;68.52;100151.91;114167;244;162029;-50
2024/03/01 11:51:24;;;;;;;;;40.00;30.00;;;;;13.00;68.29;100145.89;114229;244;39499;-52
2024/03/01 11:54:43;;;;;;;;;31.25;24.50;;;;;12.91;68.72;100137.35;114240;245;39545;-52
2024/03/01 11:57:35;;;;;;;;;40.00;31.00;;;;;13.03;68.00;100138.66;114944;244;40526;-53
2024/03/01 12:00:38;;;;;;;;;34.00;25.00;;;;;13.03;68.10;100132.29;114916;242;161621;-51